createdAt,value
2018-08-12T00:00:41.202Z,91.36
2018-08-12T00:03:10.529Z,93.47
2018-08-12T00:05:41.175Z,93.92
2018-08-12T00:08:10.705Z,92.50
2018-08-12T00:10:41.288Z,92.30
2018-08-12T00:13:12.127Z,92.46
2018-08-12T00:15:41.616Z,91.72
2018-08-12T00:18:11.822Z,92.50
2018-08-12T00:20:41.194Z,92.28
2018-08-12T00:23:10.440Z,92.18
2018-08-12T00:25:39.880Z,91.80
2018-08-12T00:28:09.424Z,92.24
2018-08-12T00:30:39.154Z,93.24
2018-08-12T00:33:08.495Z,92.26
2018-08-12T00:35:37.796Z,92.52
2018-08-12T00:38:07.301Z,92.55
2018-08-12T00:40:36.856Z,92.97
2018-08-12T00:43:06.698Z,92.55
2018-08-12T00:45:36.203Z,93.29
2018-08-12T00:48:05.606Z,93.36
2018-08-12T00:50:34.955Z,93.35
2018-08-12T00:53:04.733Z,93.13
2018-08-12T00:55:34.018Z,93.11
2018-08-12T00:58:04.106Z,92.40
2018-08-12T01:00:33.460Z,93.56
2018-08-12T01:03:02.822Z,93.22
2018-08-12T01:05:32.145Z,93.88
2018-08-12T01:08:01.707Z,93.28
2018-08-12T01:10:31.515Z,93.24
2018-08-12T01:13:01.490Z,93.13
2018-08-12T01:15:30.847Z,92.51
2018-08-12T01:18:00.143Z,93.18
2018-08-12T01:20:29.803Z,92.95
2018-08-12T01:22:59.101Z,93.74
2018-08-12T01:25:29.259Z,94.37
2018-08-12T01:27:58.831Z,94.33
2018-08-12T01:30:28.173Z,94.15
2018-08-12T01:32:57.638Z,94.23
2018-08-12T01:35:28.267Z,94.82
2018-08-12T01:37:58.065Z,94.49
2018-08-12T01:40:27.407Z,95.51
2018-08-12T01:42:56.618Z,94.60
2018-08-12T01:45:26.032Z,95.04
2018-08-12T01:47:55.554Z,94.92
2018-08-12T01:50:25.268Z,94.96
2018-08-12T01:52:54.565Z,95.33
2018-08-12T01:55:23.885Z,95.32
2018-08-12T01:57:53.506Z,93.97
2018-08-12T02:00:23.320Z,95.31
2018-08-12T02:02:53.572Z,97.17
2018-08-12T02:05:23.053Z,96.86
2018-08-12T02:07:52.348Z,97.19
2018-08-12T02:10:23.248Z,96.50
2018-08-12T02:12:52.752Z,97.38
2018-08-12T02:15:22.612Z,96.68
2018-08-12T02:17:52.742Z,96.14
2018-08-12T02:20:22.042Z,96.22
2018-08-12T02:22:52.189Z,96.45
2018-08-12T02:25:21.750Z,95.24
2018-08-12T02:27:51.141Z,95.09
2018-08-12T02:30:20.979Z,95.28
2018-08-12T02:32:50.529Z,95.91
2018-08-12T02:35:19.828Z,94.92
2018-08-12T02:37:49.238Z,95.33
2018-08-12T02:40:19.419Z,95.74
2018-08-12T02:42:49.246Z,94.60
2018-08-12T02:45:19.508Z,95.04
2018-08-12T02:47:50.029Z,94.21
2018-08-12T02:50:19.681Z,95.71
2018-08-12T02:52:49.519Z,96.15
2018-08-12T02:55:20.185Z,95.96
2018-08-12T02:57:49.416Z,95.45
2018-08-12T03:00:19.926Z,94.33
2018-08-12T03:02:49.390Z,93.94
2018-08-12T03:05:18.885Z,95.51
2018-08-12T03:07:48.241Z,95.26
2018-08-12T03:10:17.787Z,94.26
2018-08-12T03:12:47.669Z,95.59
2018-08-12T03:15:16.906Z,95.32
2018-08-12T03:17:46.375Z,94.97
2018-08-12T03:20:15.840Z,94.67
2018-08-12T03:22:45.289Z,95.37
2018-08-12T03:25:14.599Z,94.71
2018-08-12T03:27:43.985Z,94.57
2018-08-12T03:30:14.006Z,94.53
2018-08-12T03:32:43.221Z,94.28
2018-08-12T03:35:13.654Z,95.46
2018-08-12T03:37:42.994Z,95.48
2018-08-12T03:40:14.119Z,95.36
2018-08-12T03:42:45.667Z,95.67
2018-08-12T03:45:15.062Z,96.50
2018-08-12T03:47:44.534Z,96.53
2018-08-12T03:50:14.048Z,96.46
2018-08-12T03:52:43.496Z,95.63
2018-08-12T03:55:13.526Z,96.38
2018-08-12T03:57:42.722Z,97.14
2018-08-12T04:00:15.530Z,97.79
2018-08-12T04:02:45.766Z,96.84
2018-08-12T04:05:15.475Z,96.32
2018-08-12T04:07:44.928Z,96.20
2018-08-12T04:10:14.629Z,96.35
2018-08-12T04:12:44.119Z,96.14
2018-08-12T04:15:13.746Z,96.42
2018-08-12T04:17:43.146Z,95.65
2018-08-12T04:20:13.055Z,96.16
2018-08-12T04:22:42.430Z,95.93
2018-08-12T04:25:11.714Z,96.75
2018-08-12T04:27:41.138Z,96.80
2018-08-12T04:30:11.136Z,96.67
2018-08-12T04:32:40.771Z,96.35
2018-08-12T04:35:10.246Z,96.69
2018-08-12T04:37:39.964Z,96.62
2018-08-12T04:40:09.571Z,96.40
2018-08-12T04:42:39.409Z,96.35
2018-08-12T04:45:10.177Z,96.59
2018-08-12T04:47:39.945Z,96.59
2018-08-12T04:50:09.705Z,96.77
2018-08-12T04:52:39.445Z,96.77
2018-08-12T04:55:10.206Z,96.11
2018-08-12T04:57:41.343Z,96.58
2018-08-12T05:00:11.928Z,96.22
2018-08-12T05:02:41.289Z,96.96
2018-08-12T05:05:10.847Z,97.12
2018-08-12T05:07:40.091Z,96.24
2018-08-12T05:10:10.363Z,94.82
2018-08-12T05:12:39.856Z,94.26
2018-08-12T05:15:10.451Z,93.83
2018-08-12T05:17:40.367Z,91.82
2018-08-12T05:20:10.449Z,92.85
2018-08-12T05:22:40.904Z,91.59
2018-08-12T05:25:10.640Z,90.77
2018-08-12T05:27:40.392Z,89.44
2018-08-12T05:30:11.767Z,91.01
2018-08-12T05:32:42.010Z,90.52
2018-08-12T05:35:13.768Z,90.19
2018-08-12T05:37:43.536Z,89.25
2018-08-12T05:40:13.981Z,87.43
2018-08-12T05:42:45.710Z,88.45
2018-08-12T05:45:15.210Z,86.71
2018-08-12T05:47:44.369Z,85.68
2018-08-12T05:50:14.793Z,85.12
2018-08-12T05:52:44.773Z,82.91
2018-08-12T05:55:14.960Z,82.78
2018-08-12T05:57:44.542Z,83.62
2018-08-12T06:00:15.888Z,84.90
2018-08-12T06:02:46.599Z,87.11
2018-08-12T06:05:16.088Z,85.67
2018-08-12T06:07:45.392Z,85.01
2018-08-12T06:10:15.558Z,85.70
2018-08-12T06:12:45.464Z,85.49
2018-08-12T06:15:19.124Z,84.81
2018-08-12T06:17:50.154Z,84.44
2018-08-12T06:20:19.951Z,84.64
2018-08-12T06:22:49.927Z,82.60
2018-08-12T06:25:19.684Z,81.38
2018-08-12T06:27:49.002Z,84.57
2018-08-12T06:30:18.421Z,82.50
2018-08-12T06:32:48.137Z,82.51
2018-08-12T06:35:17.731Z,84.78
2018-08-12T06:37:47.456Z,82.38
2018-08-12T06:40:16.998Z,81.55
2018-08-12T06:42:48.101Z,80.91
2018-08-12T06:45:19.748Z,79.00
2018-08-12T06:47:49.460Z,77.55
2018-08-12T06:50:18.753Z,76.39
2018-08-12T06:52:48.051Z,78.13
2018-08-12T06:55:17.406Z,78.31
2018-08-12T06:57:46.913Z,77.78
2018-08-12T07:00:18.655Z,76.91
2018-08-12T07:02:48.325Z,73.88
2018-08-12T07:05:17.933Z,73.24
2018-08-12T07:07:47.600Z,72.76
2018-08-12T07:10:18.454Z,73.25
2018-08-12T07:12:49.222Z,71.38
2018-08-12T07:15:19.613Z,67.50
2018-08-12T07:17:49.370Z,71.80
2018-08-12T07:20:18.919Z,70.92
2018-08-12T07:22:48.346Z,71.89
2018-08-12T07:25:17.682Z,69.53
2018-08-12T07:27:47.119Z,66.14
2018-08-12T07:30:17.811Z,71.50
2018-08-12T07:32:47.238Z,70.52
2018-08-12T07:35:17.025Z,72.60
2018-08-12T07:37:46.435Z,72.12
2018-08-12T07:40:19.161Z,72.59
2018-08-12T07:42:49.690Z,71.16
2018-08-12T07:45:19.595Z,70.38
2018-08-12T07:47:49.084Z,70.11
2018-08-12T07:50:18.578Z,69.42
2018-08-12T07:52:48.451Z,68.60
2018-08-12T07:55:17.980Z,69.96
2018-08-12T07:57:47.497Z,69.13
2018-08-12T08:00:20.378Z,66.17
2018-08-12T08:02:50.013Z,65.53
2018-08-12T08:05:20.440Z,65.36
2018-08-12T08:07:50.581Z,64.83
2018-08-12T08:10:21.357Z,64.68
2018-08-12T08:12:50.971Z,63.58
2018-08-12T08:15:22.026Z,62.72
2018-08-12T08:17:51.612Z,63.33
2018-08-12T08:20:22.566Z,64.11
2018-08-12T08:22:51.856Z,61.94
2018-08-12T08:25:21.871Z,62.50
2018-08-12T08:27:51.965Z,61.30
2018-08-12T08:30:21.710Z,62.16
2018-08-12T08:32:51.152Z,61.65
2018-08-12T08:35:20.788Z,61.19
2018-08-12T08:37:50.240Z,60.22
2018-08-12T08:40:19.705Z,61.17
2018-08-12T08:42:50.072Z,60.94
2018-08-12T08:45:22.367Z,61.38
2018-08-12T08:47:52.818Z,62.27
2018-08-12T08:50:22.952Z,60.13
2018-08-12T08:52:52.379Z,60.05
2018-08-12T08:55:21.855Z,58.39
2018-08-12T08:57:51.124Z,59.13
2018-08-12T09:00:21.475Z,58.87
2018-08-12T09:02:52.248Z,57.87
2018-08-12T09:05:24.186Z,56.66
2018-08-12T09:07:53.650Z,58.29
2018-08-12T09:10:24.190Z,56.23
2018-08-12T09:12:53.748Z,56.96
2018-08-12T09:15:23.715Z,54.72
2018-08-12T09:17:54.107Z,55.40
2018-08-12T09:20:24.314Z,55.01
2018-08-12T09:22:53.726Z,55.97
2018-08-12T09:25:23.629Z,54.49
2018-08-12T09:27:53.551Z,54.41
2018-08-12T09:30:24.163Z,54.28
2018-08-12T09:32:53.787Z,53.45
2018-08-12T09:35:24.371Z,54.23
2018-08-12T09:37:54.500Z,53.91
2018-08-12T09:40:24.069Z,54.46
2018-08-12T09:42:53.848Z,46.82
2018-08-12T09:45:23.722Z,48.75
2018-08-12T09:47:53.885Z,49.87
2018-08-12T09:50:23.393Z,46.57
2018-08-12T09:52:54.043Z,46.31
2018-08-12T09:55:23.619Z,47.13
2018-08-12T09:57:54.555Z,46.62
2018-08-12T10:00:29.887Z,45.68
2018-08-12T10:03:00.489Z,43.96
2018-08-12T10:05:30.777Z,44.99
2018-08-12T10:08:01.164Z,46.67
2018-08-12T10:10:31.697Z,42.55
2018-08-12T10:13:02.581Z,45.06
2018-08-12T10:15:32.633Z,45.72
2018-08-12T10:18:04.438Z,46.31
2018-08-12T10:20:34.046Z,43.93
2018-08-12T10:23:03.762Z,43.58
2018-08-12T10:25:33.992Z,44.53
2018-08-12T10:28:03.514Z,45.59
2018-08-12T10:30:33.248Z,45.09
2018-08-12T10:33:03.011Z,42.05
2018-08-12T10:35:32.666Z,44.46
2018-08-12T10:38:02.632Z,44.13
2018-08-12T10:40:34.086Z,43.01
2018-08-12T10:43:03.401Z,43.02
2018-08-12T10:45:33.411Z,42.96
2018-08-12T10:48:03.173Z,41.52
2018-08-12T10:50:32.923Z,42.63
2018-08-12T10:53:02.382Z,42.19
2018-08-12T10:55:32.096Z,42.18
2018-08-12T10:58:02.319Z,41.75
2018-08-12T11:00:34.550Z,41.69
2018-08-12T11:03:04.010Z,42.20
2018-08-12T11:05:34.708Z,40.18
2018-08-12T11:08:04.582Z,40.83
2018-08-12T11:10:34.562Z,41.38
2018-08-12T11:13:04.423Z,41.63
2018-08-12T11:15:34.388Z,38.07
2018-08-12T11:18:04.741Z,41.29
2018-08-12T11:20:35.976Z,40.34
2018-08-12T11:23:05.792Z,40.38
2018-08-12T11:25:35.604Z,38.98
2018-08-12T11:28:04.930Z,40.61
2018-08-12T11:30:35.141Z,42.15
2018-08-12T11:33:04.915Z,40.31
2018-08-12T11:35:34.215Z,40.99
2018-08-12T11:38:03.767Z,39.52
2018-08-12T11:40:33.104Z,39.70
2018-08-12T11:43:02.682Z,40.87
2018-08-12T11:45:32.047Z,38.01
2018-08-12T11:48:02.040Z,38.24
2018-08-12T11:50:31.446Z,39.04
2018-08-12T11:53:00.749Z,37.79
2018-08-12T11:55:30.095Z,38.34
2018-08-12T11:57:59.638Z,39.63
2018-08-12T12:00:29.089Z,37.94
2018-08-12T12:02:58.533Z,40.49
2018-08-12T12:05:27.922Z,39.56
2018-08-12T12:07:58.961Z,37.40
2018-08-12T12:10:28.863Z,37.97
2018-08-12T12:12:59.244Z,38.06
2018-08-12T12:15:28.617Z,38.97
2018-08-12T12:17:58.061Z,36.63
2018-08-12T12:20:27.569Z,38.86
2018-08-12T12:22:56.975Z,38.31
2018-08-12T12:25:26.328Z,37.18
2018-08-12T12:27:57.492Z,38.81
2018-08-12T12:30:26.994Z,38.94
2018-08-12T12:32:57.866Z,36.78
2018-08-12T12:35:28.363Z,36.83
2018-08-12T12:37:59.235Z,37.41
2018-08-12T12:40:29.535Z,36.89
2018-08-12T12:42:59.298Z,34.27
2018-08-12T12:45:29.397Z,37.89
2018-08-12T12:47:59.564Z,37.76
2018-08-12T12:50:29.259Z,36.16
2018-08-12T12:52:58.786Z,36.77
2018-08-12T12:55:28.232Z,37.27
2018-08-12T12:57:57.995Z,36.46
2018-08-12T13:00:27.854Z,36.83
2018-08-12T13:02:57.212Z,35.78
2018-08-12T13:05:26.722Z,36.68
2018-08-12T13:07:56.202Z,38.15
2018-08-12T13:10:25.991Z,38.06
2018-08-12T13:12:55.515Z,34.37
2018-08-12T13:15:25.179Z,34.14
2018-08-12T13:17:54.614Z,35.44
2018-08-12T13:20:25.254Z,36.12
2018-08-12T13:22:54.849Z,37.30
2018-08-12T13:25:24.524Z,34.18
2018-08-12T13:27:54.045Z,34.78
2018-08-12T13:30:23.554Z,34.04
2018-08-12T13:32:53.157Z,36.58
2018-08-12T13:35:22.827Z,36.12
2018-08-12T13:37:53.032Z,36.75
2018-08-12T13:40:22.759Z,35.26
2018-08-12T13:42:52.435Z,36.54
2018-08-12T13:45:21.723Z,36.39
2018-08-12T13:47:52.173Z,35.37
2018-08-12T13:50:24.459Z,36.14
2018-08-12T13:52:54.753Z,35.88
2018-08-12T13:55:25.273Z,36.89
2018-08-12T13:57:55.209Z,36.21
2018-08-12T14:00:26.143Z,35.58
2018-08-12T14:02:56.093Z,35.62
2018-08-12T14:05:26.990Z,36.46
2018-08-12T14:07:57.352Z,36.49
2018-08-12T14:10:26.653Z,36.45
2018-08-12T14:12:56.353Z,36.41
2018-08-12T14:15:26.035Z,35.52
2018-08-12T14:17:55.387Z,35.73
2018-08-12T14:20:25.034Z,35.95
2018-08-12T14:22:54.338Z,35.98
2018-08-12T14:25:23.872Z,35.28
2018-08-12T14:27:53.243Z,37.07
2018-08-12T14:30:23.632Z,35.86
2018-08-12T14:32:53.612Z,36.88
2018-08-12T14:35:23.954Z,35.24
2018-08-12T14:37:53.460Z,37.70
2018-08-12T14:40:23.354Z,35.03
2018-08-12T14:42:53.354Z,37.03
2018-08-12T14:45:23.359Z,34.76
2018-08-12T14:47:52.777Z,37.30
2018-08-12T14:50:22.529Z,34.12
2018-08-12T14:52:52.168Z,34.81
2018-08-12T14:55:21.919Z,35.26
2018-08-12T14:57:51.974Z,35.54
2018-08-12T15:00:22.348Z,36.24
2018-08-12T15:02:52.594Z,37.68
2018-08-12T15:05:22.195Z,36.60
2018-08-12T15:07:52.427Z,35.16
2018-08-12T15:10:22.336Z,37.42
2018-08-12T15:12:52.782Z,37.60
2018-08-12T15:15:22.586Z,38.70
2018-08-12T15:17:53.063Z,36.74
2018-08-12T15:20:22.555Z,35.80
2018-08-12T15:22:52.301Z,35.26
2018-08-12T15:25:22.060Z,35.64
2018-08-12T15:27:51.491Z,36.76
2018-08-12T15:30:20.897Z,37.07
2018-08-12T15:32:50.594Z,37.05
2018-08-12T15:35:21.012Z,38.14
2018-08-12T15:37:50.660Z,37.89
2018-08-12T15:40:20.296Z,38.33
2018-08-12T15:42:49.708Z,36.47
2018-08-12T15:45:19.350Z,36.98
2018-08-12T15:47:49.348Z,36.31
2018-08-12T15:50:18.704Z,37.68
2018-08-12T15:52:48.268Z,38.79
2018-08-12T15:55:18.088Z,37.37
2018-08-12T15:57:48.869Z,40.30
2018-08-12T16:00:20.687Z,40.91
2018-08-12T16:02:51.089Z,39.84
2018-08-12T16:05:20.942Z,41.02
2018-08-12T16:07:50.404Z,44.01
2018-08-12T16:10:22.324Z,44.03
2018-08-12T16:12:54.372Z,43.09
2018-08-12T16:15:24.084Z,43.26
2018-08-12T16:17:54.422Z,40.72
2018-08-12T16:20:24.323Z,41.81
2018-08-12T16:22:53.993Z,42.93
2018-08-12T16:25:23.510Z,41.38
2018-08-12T16:27:53.003Z,41.75
2018-08-12T16:30:22.717Z,41.41
2018-08-12T16:32:51.916Z,41.59
2018-08-12T16:35:21.544Z,43.69
2018-08-12T16:37:51.181Z,44.63
2018-08-12T16:40:21.357Z,45.33
2018-08-12T16:42:51.156Z,42.60
2018-08-12T16:45:20.991Z,44.40
2018-08-12T16:47:50.250Z,45.69
2018-08-12T16:50:19.753Z,46.66
2018-08-12T16:52:49.256Z,47.98
2018-08-12T16:55:19.544Z,44.93
2018-08-12T16:57:50.962Z,48.22
2018-08-12T17:00:23.228Z,49.23
2018-08-12T17:02:52.659Z,51.56
2018-08-12T17:05:23.453Z,52.17
2018-08-12T17:07:53.537Z,54.64
2018-08-12T17:10:23.993Z,54.77
2018-08-12T17:12:54.551Z,56.31
2018-08-12T17:15:24.551Z,57.18
2018-08-12T17:17:55.624Z,57.25
2018-08-12T17:20:26.067Z,58.39
2018-08-12T17:22:55.507Z,57.18
2018-08-12T17:25:25.259Z,55.95
2018-08-12T17:27:55.256Z,56.97
2018-08-12T17:30:24.659Z,57.17
2018-08-12T17:32:54.666Z,56.91
2018-08-12T17:35:24.277Z,57.50
2018-08-12T17:37:54.047Z,58.35
2018-08-12T17:40:23.455Z,57.53
2018-08-12T17:42:53.022Z,57.63
2018-08-12T17:45:22.525Z,58.07
2018-08-12T17:47:52.829Z,60.69
2018-08-12T17:50:22.395Z,61.38
2018-08-12T17:52:52.002Z,61.98
2018-08-12T17:55:22.029Z,60.95
2018-08-12T17:57:51.512Z,62.14
2018-08-12T18:00:22.852Z,62.09
2018-08-12T18:02:52.667Z,62.75
2018-08-12T18:05:23.148Z,63.49
2018-08-12T18:07:52.651Z,64.03
2018-08-12T18:10:23.147Z,63.16
2018-08-12T18:12:53.649Z,65.57
2018-08-12T18:15:23.240Z,66.67
2018-08-12T18:17:53.372Z,65.89
2018-08-12T18:20:23.044Z,64.92
2018-08-12T18:22:52.775Z,65.33
2018-08-12T18:25:23.484Z,65.41
2018-08-12T18:27:53.402Z,66.67
2018-08-12T18:30:23.981Z,65.49
2018-08-12T18:32:53.375Z,65.36
2018-08-12T18:35:23.352Z,67.12
2018-08-12T18:37:53.047Z,68.24
2018-08-12T18:40:22.569Z,68.35
2018-08-12T18:42:52.136Z,68.01
2018-08-12T18:45:21.849Z,68.45
2018-08-12T18:47:52.268Z,69.08
2018-08-12T18:50:22.285Z,68.88
2018-08-12T18:52:52.866Z,68.92
2018-08-12T18:55:22.393Z,68.01
2018-08-12T18:57:51.839Z,68.26
2018-08-12T19:00:21.822Z,68.87
2018-08-12T19:02:52.915Z,70.58
2018-08-12T19:05:22.436Z,70.74
2018-08-12T19:07:51.972Z,71.58
2018-08-12T19:10:22.401Z,71.53
2018-08-12T19:12:52.079Z,71.67
2018-08-12T19:15:23.692Z,72.84
2018-08-12T19:17:53.545Z,72.78
2018-08-12T19:20:23.096Z,72.08
2018-08-12T19:22:52.476Z,72.80
2018-08-12T19:25:22.938Z,72.49
2018-08-12T19:27:53.304Z,72.61
2018-08-12T19:30:23.140Z,72.88
2018-08-12T19:32:53.040Z,73.68
2018-08-12T19:35:22.992Z,72.63
2018-08-12T19:37:52.250Z,72.41
2018-08-12T19:40:21.711Z,72.52
2018-08-12T19:42:51.058Z,71.62
2018-08-12T19:45:20.687Z,70.86
2018-08-12T19:47:50.135Z,70.48
2018-08-12T19:50:19.369Z,71.82
2018-08-12T19:52:48.839Z,72.26
2018-08-12T19:55:18.364Z,72.96
2018-08-12T19:57:48.697Z,74.27
2018-08-12T20:00:18.425Z,74.83
2018-08-12T20:02:47.885Z,74.18
2018-08-12T20:05:17.367Z,73.79
2018-08-12T20:07:46.985Z,73.95
2018-08-12T20:10:16.906Z,74.14
2018-08-12T20:12:46.288Z,74.20
2018-08-12T20:15:15.673Z,74.02
2018-08-12T20:17:45.104Z,74.05
2018-08-12T20:20:14.498Z,74.05
2018-08-12T20:22:44.157Z,74.40
2018-08-12T20:25:13.639Z,74.47
2018-08-12T20:27:43.118Z,74.05
2018-08-12T20:30:13.959Z,73.48
2018-08-12T20:32:43.730Z,73.05
2018-08-12T20:35:13.780Z,73.73
2018-08-12T20:37:43.241Z,75.39
2018-08-12T20:40:12.619Z,77.22
2018-08-12T20:42:42.054Z,77.23
2018-08-12T20:45:12.952Z,77.52
2018-08-12T20:47:42.577Z,76.15
2018-08-12T20:50:12.250Z,76.77
2018-08-12T20:52:41.603Z,75.83
2018-08-12T20:55:12.025Z,76.21
2018-08-12T20:57:41.429Z,76.76
2018-08-12T21:00:12.010Z,77.08
2018-08-12T21:02:41.513Z,77.52
2018-08-12T21:05:10.847Z,78.03
2018-08-12T21:07:41.667Z,78.53
2018-08-12T21:10:12.884Z,78.99
2018-08-12T21:12:42.775Z,78.98
2018-08-12T21:15:12.286Z,80.25
2018-08-12T21:17:42.534Z,80.09
2018-08-12T21:20:12.828Z,80.33
2018-08-12T21:22:42.255Z,79.57
2018-08-12T21:25:11.731Z,80.08
2018-08-12T21:27:41.232Z,81.02
2018-08-12T21:30:10.784Z,79.41
2018-08-12T21:32:40.841Z,79.26
2018-08-12T21:35:10.524Z,79.86
2018-08-12T21:37:39.940Z,80.90
2018-08-12T21:40:09.508Z,81.10
2018-08-12T21:42:38.817Z,80.36
2018-08-12T21:45:08.153Z,79.16
2018-08-12T21:47:39.472Z,78.63
2018-08-12T21:50:09.314Z,79.35
2018-08-12T21:52:38.735Z,79.53
2018-08-12T21:55:08.310Z,79.16
2018-08-12T21:57:44.710Z,79.88
2018-08-12T22:00:15.687Z,80.19
2018-08-12T22:02:46.099Z,79.63
2018-08-12T22:05:15.487Z,80.03
2018-08-12T22:07:45.084Z,82.23
2018-08-12T22:10:15.013Z,82.21
2018-08-12T22:12:45.797Z,82.30
2018-08-12T22:15:15.368Z,83.63
2018-08-12T22:17:44.606Z,82.84
2018-08-12T22:20:14.326Z,83.42
2018-08-12T22:22:43.813Z,82.80
2018-08-12T22:25:13.287Z,82.45
2018-08-12T22:27:42.749Z,82.39
2018-08-12T22:30:14.431Z,83.31
2018-08-12T22:32:43.862Z,82.63
2018-08-12T22:35:13.219Z,83.34
2018-08-12T22:37:43.421Z,84.69
2018-08-12T22:40:13.815Z,84.92
2018-08-12T22:42:44.300Z,84.86
2018-08-12T22:45:13.589Z,84.67
2018-08-12T22:47:43.555Z,84.68
2018-08-12T22:50:12.786Z,83.78
2018-08-12T22:52:42.315Z,84.55
2018-08-12T22:55:12.236Z,84.95
2018-08-12T22:57:41.705Z,85.07
2018-08-12T23:00:16.269Z,85.75
2018-08-12T23:02:45.871Z,85.67
2018-08-12T23:05:15.280Z,85.95
2018-08-12T23:07:45.251Z,86.97
2018-08-12T23:10:14.662Z,86.21
2018-08-12T23:12:44.011Z,86.62
2018-08-12T23:15:23.914Z,85.94
2018-08-12T23:17:53.425Z,86.08
2018-08-12T23:20:24.699Z,86.17
2018-08-12T23:22:54.063Z,86.72
2018-08-12T23:25:23.472Z,86.74
2018-08-12T23:27:53.456Z,86.81
2018-08-12T23:30:23.097Z,86.63
2018-08-12T23:32:52.809Z,87.34
2018-08-12T23:35:22.473Z,87.46
2018-08-12T23:37:52.651Z,87.11
2018-08-12T23:40:22.056Z,87.32
2018-08-12T23:42:51.922Z,88.27
2018-08-12T23:45:21.321Z,86.99
2018-08-12T23:47:50.567Z,88.33
2018-08-12T23:50:20.184Z,87.14
2018-08-12T23:52:50.027Z,88.43
2018-08-12T23:55:19.646Z,88.46
2018-08-12T23:57:49.672Z,87.62
